createdAt,value
2022-08-05T00:06:05.047Z,21.86
2022-08-05T00:21:08.541Z,21.53
2022-08-05T00:36:16.258Z,21.44
2022-08-05T00:51:50.527Z,21.32
2022-08-05T01:06:55.078Z,21.36
2022-08-05T01:22:00.411Z,21.50
2022-08-05T01:37:24.426Z,21.45
2022-08-05T01:52:28.368Z,21.33
2022-08-05T02:07:34.127Z,21.35
2022-08-05T02:22:42.497Z,21.30
2022-08-05T02:37:47.869Z,21.32
2022-08-05T02:52:56.446Z,21.44
2022-08-05T03:08:06.682Z,21.50
2022-08-05T03:23:11.315Z,21.61
2022-08-05T03:38:16.410Z,21.89
2022-08-05T03:55:51.937Z,22.16
2022-08-05T04:08:57.284Z,22.40
2022-08-05T04:24:06.601Z,22.67
2022-08-05T04:39:10.790Z,23.09
2022-08-05T04:54:15.313Z,23.92
2022-08-05T05:09:18.404Z,24.69
2022-08-05T05:24:22.013Z,24.50
2022-08-05T05:39:24.269Z,25.28
2022-08-05T05:54:33.541Z,26.00
2022-08-05T06:10:01.403Z,26.43
2022-08-05T06:25:25.323Z,25.52
2022-08-05T06:40:32.610Z,25.85
2022-08-05T06:55:36.394Z,26.43
2022-08-05T07:10:53.235Z,27.09
2022-08-05T07:25:56.956Z,27.45
2022-08-05T07:41:04.533Z,28.59
2022-08-05T07:57:00.162Z,27.41
2022-08-05T08:11:48.183Z,27.52
2022-08-05T08:26:57.230Z,28.76
2022-08-05T08:42:02.202Z,29.98
2022-08-05T08:57:11.519Z,28.76
2022-08-05T09:12:20.552Z,29.41
2022-08-05T09:28:03.758Z,29.05
2022-08-05T09:43:08.458Z,29.06
2022-08-05T09:58:15.479Z,30.88
2022-08-05T10:13:45.817Z,31.91
2022-08-05T10:28:51.246Z,31.88
2022-08-05T10:44:02.105Z,30.86
2022-08-05T11:00:01.137Z,32.67
2022-08-05T11:14:57.809Z,31.24
2022-08-05T11:30:00.880Z,33.00
2022-08-05T11:45:05.651Z,31.23
2022-08-05T12:00:28.814Z,29.84
2022-08-05T12:15:38.087Z,29.33
2022-08-05T12:30:45.826Z,29.00
2022-08-05T12:45:56.396Z,29.03
2022-08-05T13:01:59.710Z,28.74
2022-08-05T13:16:24.917Z,29.05
2022-08-05T13:31:34.152Z,28.12
2022-08-05T13:47:04.592Z,26.42
2022-08-05T14:02:08.874Z,24.41
2022-08-05T14:17:26.499Z,23.76
2022-08-05T14:32:31.916Z,23.04
2022-08-05T14:48:03.543Z,22.29
2022-08-05T15:02:58.198Z,22.05
2022-08-05T15:18:03.596Z,22.16
2022-08-05T15:33:06.745Z,22.38
2022-08-05T15:48:10.173Z,22.43
2022-08-05T16:03:16.503Z,22.52
2022-08-05T16:18:28.988Z,22.64
2022-08-05T16:33:41.380Z,22.60
2022-08-05T16:48:43.891Z,22.35
2022-08-05T17:03:45.837Z,22.06
2022-08-05T17:18:47.710Z,21.95
2022-08-05T17:33:50.960Z,21.90
2022-08-05T17:48:53.663Z,21.82
2022-08-05T18:04:03.562Z,21.91
2022-08-05T18:19:07.701Z,21.90
2022-08-05T18:34:12.808Z,21.80
2022-08-05T18:49:44.578Z,21.78
2022-08-05T19:05:03.220Z,21.72
2022-08-05T19:20:21.654Z,21.67
2022-08-05T19:35:25.828Z,21.62
2022-08-05T19:50:47.761Z,21.49
2022-08-05T20:05:51.318Z,21.34
2022-08-05T20:20:55.049Z,21.39
2022-08-05T20:35:58.404Z,21.29
2022-08-05T20:51:00.293Z,21.19
2022-08-05T21:06:27.864Z,21.14
2022-08-05T21:21:39.165Z,21.04
2022-08-05T21:36:46.664Z,20.93
2022-08-05T21:52:22.649Z,20.92
2022-08-05T22:07:13.102Z,20.80
2022-08-05T22:22:16.122Z,20.65
2022-08-05T22:37:18.200Z,20.66
2022-08-05T22:52:30.192Z,20.84
2022-08-05T23:07:44.875Z,20.78
2022-08-05T23:22:50.000Z,20.81
2022-08-05T23:37:58.017Z,20.74
2022-08-05T23:53:03.237Z,20.75
